createdAt,value
2019-01-17T00:00:19.475Z,93.50
2019-01-17T00:02:52.291Z,93.70
2019-01-17T00:05:22.156Z,93.50
2019-01-17T00:07:52.099Z,93.70
2019-01-17T00:10:24.561Z,93.70
2019-01-17T00:12:57.398Z,93.80
2019-01-17T00:15:27.242Z,94.20
2019-01-17T00:18:03.094Z,94.00
2019-01-17T00:20:35.638Z,94.10
2019-01-17T00:23:11.482Z,94.30
2019-01-17T00:25:57.518Z,93.80
2019-01-17T00:28:36.545Z,93.80
2019-01-17T00:31:06.398Z,94.00
2019-01-17T00:33:39.061Z,94.10
2019-01-17T00:36:11.878Z,94.20
2019-01-17T00:38:57.947Z,93.90
2019-01-17T00:41:30.787Z,94.00
2019-01-17T00:44:03.713Z,94.10
2019-01-17T00:46:42.782Z,94.10
2019-01-17T00:49:31.025Z,94.20
2019-01-17T00:52:17.139Z,94.10
2019-01-17T00:55:02.959Z,94.20
2019-01-17T00:57:48.194Z,94.20
2019-01-17T01:00:34.535Z,94.30
2019-01-17T01:03:10.454Z,94.60
2019-01-17T01:05:46.317Z,95.10
2019-01-17T01:08:31.195Z,95.00
2019-01-17T01:11:06.471Z,95.30
2019-01-17T01:13:52.658Z,95.40
2019-01-17T01:16:27.223Z,95.60
2019-01-17T01:19:12.370Z,95.30
2019-01-17T01:21:51.780Z,95.10
2019-01-17T01:24:21.648Z,95.10
2019-01-17T01:27:09.849Z,95.60
2019-01-17T01:29:39.726Z,95.00
2019-01-17T01:32:15.554Z,94.20
2019-01-17T01:34:45.416Z,93.80
2019-01-17T01:37:24.278Z,93.00
2019-01-17T01:39:57.102Z,92.70
2019-01-17T01:42:26.934Z,92.70
2019-01-17T01:44:59.650Z,92.30
2019-01-17T01:47:47.626Z,92.00
2019-01-17T01:50:20.178Z,91.40
2019-01-17T01:52:50.006Z,91.00
2019-01-17T01:55:18.218Z,90.80
2019-01-17T01:57:46.418Z,90.40
2019-01-17T02:00:14.610Z,89.70
2019-01-17T02:02:42.825Z,88.70
2019-01-17T02:05:11.017Z,88.20
2019-01-17T02:07:39.230Z,87.70
2019-01-17T02:10:10.654Z,87.10
2019-01-17T02:12:38.856Z,86.60
2019-01-17T02:15:07.043Z,86.00
2019-01-17T02:17:35.254Z,85.40
2019-01-17T02:20:04.890Z,85.40
2019-01-17T02:22:33.089Z,84.90
2019-01-17T02:25:49.514Z,84.10
2019-01-17T02:28:17.730Z,83.60
2019-01-17T02:30:45.961Z,83.10
2019-01-17T02:33:14.201Z,82.80
2019-01-17T02:35:42.429Z,82.70
2019-01-17T02:38:10.658Z,82.60
2019-01-17T02:40:38.929Z,82.70
2019-01-17T02:43:07.161Z,83.20
2019-01-17T02:45:35.381Z,84.10
2019-01-17T02:48:03.643Z,84.00
2019-01-17T02:50:31.873Z,83.50
2019-01-17T02:53:00.151Z,84.20
2019-01-17T02:55:28.420Z,83.40
2019-01-17T02:57:56.649Z,83.10
2019-01-17T03:00:24.897Z,83.20
2019-01-17T03:02:53.165Z,83.10
2019-01-17T03:05:21.416Z,83.00
2019-01-17T03:07:49.633Z,82.40
2019-01-17T03:10:17.891Z,82.40
2019-01-17T03:12:46.117Z,83.00
2019-01-17T03:15:14.335Z,82.80
2019-01-17T03:17:42.601Z,83.10
2019-01-17T03:20:12.569Z,82.80
2019-01-17T03:22:40.797Z,83.80
2019-01-17T03:25:10.495Z,84.00
2019-01-17T03:27:38.763Z,84.10
2019-01-17T03:30:13.414Z,83.80
2019-01-17T03:32:41.660Z,83.50
2019-01-17T03:35:09.882Z,83.70
2019-01-17T03:37:38.118Z,83.40
2019-01-17T03:40:09.549Z,83.50
2019-01-17T03:42:37.770Z,83.40
2019-01-17T03:45:08.650Z,83.30
2019-01-17T03:47:36.900Z,83.20
2019-01-17T03:50:10.840Z,83.00
2019-01-17T03:52:39.051Z,83.10
2019-01-17T03:55:09.621Z,83.60
2019-01-17T03:57:37.841Z,83.70
2019-01-17T04:00:14.916Z,84.00
2019-01-17T04:02:43.143Z,84.10
2019-01-17T04:05:11.357Z,84.50
2019-01-17T04:07:39.597Z,85.00
2019-01-17T04:10:10.568Z,85.50
2019-01-17T04:12:38.837Z,85.80
2019-01-17T04:15:08.601Z,85.60
2019-01-17T04:17:36.825Z,85.30
2019-01-17T04:20:08.272Z,85.40
2019-01-17T04:22:36.573Z,85.10
2019-01-17T04:25:06.469Z,85.40
2019-01-17T04:27:34.687Z,85.40
2019-01-17T04:30:03.105Z,85.90
2019-01-17T04:32:31.340Z,86.20
2019-01-17T04:34:59.573Z,86.60
2019-01-17T04:37:27.829Z,86.70
2019-01-17T04:39:56.055Z,87.00
2019-01-17T04:42:24.340Z,87.80
2019-01-17T04:44:52.601Z,88.10
2019-01-17T04:47:20.833Z,89.50
2019-01-17T04:49:50.124Z,90.10
2019-01-17T04:52:18.344Z,90.30
2019-01-17T04:54:46.569Z,90.80
2019-01-17T04:57:15.645Z,91.00
2019-01-17T04:59:43.900Z,91.30
2019-01-17T05:02:12.140Z,91.40
2019-01-17T05:04:40.378Z,91.30
2019-01-17T05:07:08.601Z,91.20
2019-01-17T05:09:36.856Z,91.30
2019-01-17T05:12:05.077Z,91.10
2019-01-17T05:14:33.324Z,91.10
2019-01-17T05:17:01.544Z,91.20
2019-01-17T05:19:29.797Z,91.30
2019-01-17T05:21:58.050Z,91.60
2019-01-17T05:24:26.260Z,91.80
2019-01-17T05:26:54.550Z,92.10
2019-01-17T05:29:22.764Z,92.20
2019-01-17T05:31:50.996Z,92.00
2019-01-17T05:34:19.241Z,91.60
2019-01-17T05:36:47.473Z,91.70
2019-01-17T05:39:15.728Z,91.50
2019-01-17T05:41:44.117Z,91.50
2019-01-17T05:44:12.361Z,91.50
2019-01-17T05:46:40.633Z,91.50
2019-01-17T05:49:08.870Z,91.50
2019-01-17T05:51:37.106Z,91.20
2019-01-17T05:54:05.340Z,91.40
2019-01-17T05:56:33.560Z,91.50
2019-01-17T05:59:01.829Z,91.50
2019-01-17T06:01:30.033Z,91.80
2019-01-17T06:03:58.252Z,92.10
2019-01-17T06:06:32.840Z,92.40
2019-01-17T06:08:56.456Z,92.10
2019-01-17T06:11:24.709Z,92.10
2019-01-17T06:13:52.933Z,92.20
2019-01-17T06:16:21.159Z,92.10
2019-01-17T06:18:49.401Z,92.10
2019-01-17T06:21:17.628Z,91.50
2019-01-17T06:23:45.903Z,91.60
2019-01-17T06:26:14.133Z,91.80
2019-01-17T06:28:42.348Z,92.30
2019-01-17T06:31:10.591Z,92.70
2019-01-17T06:33:38.810Z,93.10
2019-01-17T06:36:08.688Z,93.30
2019-01-17T06:38:36.924Z,93.50
2019-01-17T06:41:05.158Z,93.00
2019-01-17T06:43:33.476Z,92.60
2019-01-17T06:46:01.706Z,92.20
2019-01-17T06:48:29.952Z,91.70
2019-01-17T06:50:58.173Z,91.80
2019-01-17T06:53:26.387Z,91.70
2019-01-17T06:55:54.638Z,91.90
2019-01-17T06:58:22.856Z,92.10
2019-01-17T07:00:51.107Z,92.40
2019-01-17T07:03:19.328Z,92.50
2019-01-17T07:05:48.588Z,93.10
2019-01-17T07:08:16.793Z,93.30
2019-01-17T07:10:45.028Z,92.90
2019-01-17T07:13:13.283Z,92.30
2019-01-17T07:15:41.511Z,91.90
2019-01-17T07:18:09.740Z,91.70
2019-01-17T07:20:37.984Z,91.30
2019-01-17T07:23:06.216Z,91.20
2019-01-17T07:25:40.851Z,91.10
2019-01-17T07:28:04.432Z,90.80
2019-01-17T07:30:34.306Z,90.50
2019-01-17T07:33:02.560Z,90.30
2019-01-17T07:35:30.786Z,90.10
2019-01-17T07:37:59.040Z,90.10
2019-01-17T07:40:27.255Z,90.10
2019-01-17T07:42:55.476Z,89.90
2019-01-17T07:45:25.965Z,89.90
2019-01-17T07:47:54.196Z,89.40
2019-01-17T07:50:22.452Z,89.60
2019-01-17T07:52:50.672Z,89.20
2019-01-17T07:55:18.895Z,89.10
2019-01-17T07:57:47.129Z,89.00
2019-01-17T08:00:17.693Z,88.90
2019-01-17T08:02:45.936Z,88.80
2019-01-17T08:05:14.169Z,88.50
2019-01-17T08:07:42.365Z,88.50
2019-01-17T08:10:13.408Z,88.50
2019-01-17T08:12:41.632Z,88.80
2019-01-17T08:15:11.628Z,88.90
2019-01-17T08:17:39.922Z,89.10
2019-01-17T08:20:19.996Z,89.10
2019-01-17T08:22:48.197Z,89.00
2019-01-17T08:25:16.528Z,88.90
2019-01-17T08:27:44.832Z,88.80
2019-01-17T08:30:18.921Z,88.90
2019-01-17T08:32:47.170Z,88.50
2019-01-17T08:35:15.735Z,88.40
2019-01-17T08:37:43.984Z,88.40
2019-01-17T08:40:20.364Z,88.10
2019-01-17T08:42:48.072Z,88.10
2019-01-17T08:45:16.319Z,87.80
2019-01-17T08:47:44.540Z,87.60
2019-01-17T08:50:16.123Z,87.30
2019-01-17T08:52:44.368Z,87.40
2019-01-17T08:55:12.592Z,86.20
2019-01-17T08:57:40.836Z,85.80
2019-01-17T09:00:14.978Z,85.20
2019-01-17T09:02:43.200Z,85.00
2019-01-17T09:05:11.452Z,84.60
2019-01-17T09:07:39.696Z,84.10
2019-01-17T09:10:16.759Z,84.20
2019-01-17T09:12:44.988Z,83.70
2019-01-17T09:15:15.844Z,83.40
2019-01-17T09:17:44.097Z,83.00
2019-01-17T09:20:13.959Z,83.00
2019-01-17T09:22:42.212Z,83.30
2019-01-17T09:25:14.957Z,82.90
2019-01-17T09:27:43.171Z,82.50
2019-01-17T09:30:14.309Z,82.10
2019-01-17T09:32:42.520Z,81.70
2019-01-17T09:35:12.723Z,82.00
2019-01-17T09:37:40.959Z,81.30
2019-01-17T09:40:17.934Z,81.60
2019-01-17T09:42:46.219Z,81.60
2019-01-17T09:45:14.455Z,81.60
2019-01-17T09:47:42.706Z,80.70
2019-01-17T09:50:16.886Z,80.90
2019-01-17T09:52:45.104Z,81.10
2019-01-17T09:55:13.412Z,80.30
2019-01-17T09:57:41.639Z,79.90
2019-01-17T10:00:13.132Z,79.80
2019-01-17T10:02:41.392Z,78.70
2019-01-17T10:05:09.608Z,78.10
2019-01-17T10:07:37.834Z,76.80
2019-01-17T10:10:09.349Z,76.00
2019-01-17T10:12:37.581Z,74.50
2019-01-17T10:15:09.075Z,74.50
2019-01-17T10:17:40.587Z,73.10
2019-01-17T10:20:20.847Z,70.90
2019-01-17T10:23:04.160Z,69.20
2019-01-17T10:25:47.529Z,70.60
2019-01-17T10:28:35.291Z,70.70
2019-01-17T10:31:23.302Z,72.00
2019-01-17T10:33:54.783Z,72.70
2019-01-17T10:36:41.315Z,73.00
2019-01-17T10:39:12.858Z,72.90
2019-01-17T10:41:50.116Z,73.60
2019-01-17T10:44:30.565Z,73.40
2019-01-17T10:47:35.702Z,73.60
2019-01-17T10:50:21.564Z,73.80
2019-01-17T10:52:55.784Z,73.90
2019-01-17T10:55:49.952Z,73.50
2019-01-17T10:58:42.795Z,73.70
2019-01-17T11:01:20.023Z,73.60
2019-01-17T11:04:08.051Z,73.50
2019-01-17T11:06:57.840Z,73.60
2019-01-17T11:09:46.128Z,73.00
2019-01-17T11:12:23.151Z,73.10
2019-01-17T11:15:03.592Z,73.20
2019-01-17T11:17:40.963Z,73.40
2019-01-17T11:20:31.817Z,73.20
2019-01-17T11:23:12.232Z,73.20
2019-01-17T11:25:43.748Z,72.80
2019-01-17T11:28:15.240Z,72.40
2019-01-17T11:31:03.432Z,71.20
2019-01-17T11:33:40.752Z,71.40
2019-01-17T11:36:36.515Z,68.70
2019-01-17T11:39:16.096Z,67.80
2019-01-17T11:41:53.523Z,68.60
2019-01-17T11:44:36.634Z,69.60
2019-01-17T11:47:23.511Z,71.10
2019-01-17T11:50:09.971Z,72.70
2019-01-17T11:52:59.727Z,74.40
2019-01-17T11:55:36.900Z,74.10
2019-01-17T11:58:25.103Z,74.70
2019-01-17T12:00:59.028Z,74.40
2019-01-17T12:03:33.308Z,74.50
2019-01-17T12:06:01.523Z,74.50
2019-01-17T12:08:29.751Z,74.80
2019-01-17T12:10:58.000Z,74.40
2019-01-17T12:13:26.227Z,74.80
2019-01-17T12:15:54.488Z,74.60
2019-01-17T12:18:22.713Z,74.20
2019-01-17T12:20:50.932Z,74.40
2019-01-17T12:23:19.172Z,73.70
2019-01-17T12:25:47.416Z,73.40
2019-01-17T12:28:16.485Z,74.10
2019-01-17T12:30:44.780Z,73.60
2019-01-17T12:33:13.000Z,73.40
2019-01-17T12:35:41.291Z,73.30
2019-01-17T12:38:09.499Z,72.60
2019-01-17T12:40:37.796Z,73.30
2019-01-17T12:43:06.024Z,72.90
2019-01-17T12:45:34.243Z,72.60
2019-01-17T12:48:02.496Z,74.60
2019-01-17T12:50:31.883Z,74.50
2019-01-17T12:53:00.244Z,75.00
2019-01-17T12:55:28.464Z,75.70
2019-01-17T12:57:56.712Z,75.90
2019-01-17T13:00:24.960Z,76.60
2019-01-17T13:02:53.198Z,77.20
2019-01-17T13:05:21.443Z,78.60
2019-01-17T13:07:49.667Z,78.90
2019-01-17T13:10:18.666Z,79.20
2019-01-17T13:12:46.904Z,79.80
2019-01-17T13:15:15.116Z,80.10
2019-01-17T13:17:43.372Z,80.60
2019-01-17T13:20:14.042Z,79.70
2019-01-17T13:22:42.292Z,79.60
2019-01-17T13:25:13.891Z,79.80
2019-01-17T13:27:42.136Z,79.10
2019-01-17T13:30:21.541Z,79.90
2019-01-17T13:32:49.794Z,79.90
2019-01-17T13:35:18.028Z,80.20
2019-01-17T13:37:46.285Z,80.20
2019-01-17T13:40:17.207Z,80.20
2019-01-17T13:42:45.481Z,80.00
2019-01-17T13:45:18.463Z,79.70
2019-01-17T13:47:46.720Z,79.40
2019-01-17T13:50:14.984Z,78.90
2019-01-17T13:52:43.210Z,78.50
2019-01-17T13:55:13.996Z,79.30
2019-01-17T13:57:42.216Z,79.60
2019-01-17T14:00:24.809Z,78.90
2019-01-17T14:02:53.477Z,79.40
2019-01-17T14:05:21.707Z,79.30
2019-01-17T14:07:50.493Z,80.60
2019-01-17T14:10:19.657Z,80.20
2019-01-17T14:12:47.899Z,79.40
2019-01-17T14:15:24.009Z,79.90
2019-01-17T14:17:52.248Z,80.40
2019-01-17T14:20:20.464Z,79.70
2019-01-17T14:22:48.721Z,80.20
2019-01-17T14:25:17.616Z,80.10
2019-01-17T14:27:45.936Z,80.00
2019-01-17T14:30:22.905Z,80.20
2019-01-17T14:32:51.192Z,80.50
2019-01-17T14:35:19.434Z,80.30
2019-01-17T14:37:47.671Z,80.60
2019-01-17T14:40:15.884Z,80.30
2019-01-17T14:42:44.136Z,80.20
2019-01-17T14:45:20.556Z,80.00
2019-01-17T14:47:48.827Z,79.60
2019-01-17T14:50:25.241Z,79.50
2019-01-17T14:52:53.476Z,79.40
2019-01-17T14:55:21.699Z,79.50
2019-01-17T14:57:49.940Z,79.80
2019-01-17T15:00:26.405Z,80.30
2019-01-17T15:02:54.623Z,80.00
2019-01-17T15:05:22.845Z,80.40
2019-01-17T15:07:51.083Z,80.20
2019-01-17T15:10:25.241Z,80.20
2019-01-17T15:12:53.479Z,80.00
2019-01-17T15:15:21.707Z,80.60
2019-01-17T15:17:49.920Z,80.60
2019-01-17T15:20:20.003Z,81.50
2019-01-17T15:22:50.061Z,81.70
2019-01-17T15:25:19.571Z,82.70
2019-01-17T15:27:47.813Z,83.30
2019-01-17T15:30:18.946Z,84.00
2019-01-17T15:32:47.428Z,84.80
2019-01-17T15:35:15.668Z,85.40
2019-01-17T15:37:43.887Z,86.30
2019-01-17T15:40:18.012Z,87.80
2019-01-17T15:42:46.265Z,87.90
2019-01-17T15:45:14.488Z,88.60
2019-01-17T15:47:42.704Z,89.20
2019-01-17T15:50:13.593Z,90.20
2019-01-17T15:52:41.827Z,90.60
2019-01-17T15:55:12.184Z,91.20
2019-01-17T15:57:40.445Z,92.00
2019-01-17T16:00:11.915Z,92.50
2019-01-17T16:02:40.161Z,93.10
2019-01-17T16:05:08.413Z,93.80
2019-01-17T16:07:36.627Z,94.40
2019-01-17T16:10:10.715Z,94.50
2019-01-17T16:12:38.973Z,94.30
2019-01-17T16:15:15.238Z,94.20
2019-01-17T16:17:43.495Z,94.40
2019-01-17T16:20:13.756Z,95.10
2019-01-17T16:22:42.026Z,94.90
2019-01-17T16:25:12.148Z,94.70
2019-01-17T16:27:41.982Z,94.10
2019-01-17T16:30:16.385Z,94.20
2019-01-17T16:32:44.601Z,94.00
2019-01-17T16:35:12.824Z,94.10
2019-01-17T16:37:41.071Z,94.70
2019-01-17T16:40:11.128Z,94.80
2019-01-17T16:42:39.349Z,94.90
2019-01-17T16:45:10.603Z,95.20
2019-01-17T16:47:38.827Z,95.40
2019-01-17T16:50:13.116Z,95.60
2019-01-17T16:52:41.352Z,95.70
2019-01-17T16:55:10.411Z,95.60
2019-01-17T16:57:38.675Z,95.20
2019-01-17T17:00:15.505Z,95.00
2019-01-17T17:02:43.748Z,94.90
2019-01-17T17:05:12.060Z,94.80
2019-01-17T17:07:40.302Z,94.80
2019-01-17T17:10:11.529Z,94.80
2019-01-17T17:12:39.748Z,94.50
2019-01-17T17:15:09.542Z,95.00
2019-01-17T17:17:37.799Z,94.80
2019-01-17T17:20:11.767Z,94.70
2019-01-17T17:22:40.013Z,94.80
2019-01-17T17:25:08.229Z,94.80
2019-01-17T17:27:36.489Z,94.80
2019-01-17T17:30:07.980Z,94.80
2019-01-17T17:32:36.215Z,94.70
2019-01-17T17:35:05.416Z,94.80
2019-01-17T17:37:33.645Z,94.80
2019-01-17T17:40:01.904Z,94.80
2019-01-17T17:42:30.132Z,95.00
2019-01-17T17:44:58.357Z,94.70
2019-01-17T17:47:26.600Z,94.90
2019-01-17T17:49:54.905Z,94.70
2019-01-17T17:52:23.172Z,94.50
2019-01-17T17:54:51.463Z,94.20
2019-01-17T17:57:19.727Z,94.50
2019-01-17T17:59:47.988Z,94.30
2019-01-17T18:02:17.869Z,93.80
2019-01-17T18:04:46.206Z,93.10
2019-01-17T18:07:14.435Z,93.40
2019-01-17T18:09:42.700Z,92.90
2019-01-17T18:12:10.919Z,92.90
2019-01-17T18:14:40.038Z,92.30
2019-01-17T18:17:08.287Z,92.70
2019-01-17T18:19:36.507Z,91.90
2019-01-17T18:22:04.784Z,92.20
2019-01-17T18:24:33.007Z,92.10
2019-01-17T18:27:01.232Z,91.70
2019-01-17T18:29:29.520Z,91.80
2019-01-17T18:31:57.753Z,91.50
2019-01-17T18:34:26.016Z,91.20
2019-01-17T18:36:54.259Z,91.40
2019-01-17T18:39:22.502Z,91.50
2019-01-17T18:41:50.788Z,91.20
2019-01-17T18:44:19.028Z,91.40
2019-01-17T18:46:47.287Z,91.60
2019-01-17T18:49:15.500Z,91.50
2019-01-17T18:51:43.733Z,91.60
2019-01-17T18:54:11.991Z,91.60
2019-01-17T18:56:41.974Z,91.60
2019-01-17T18:59:10.241Z,91.70
2019-01-17T19:01:38.492Z,91.50
2019-01-17T19:04:06.716Z,91.40
2019-01-17T19:06:35.240Z,91.50
2019-01-17T19:09:05.479Z,91.40
2019-01-17T19:11:33.742Z,91.40
2019-01-17T19:14:01.982Z,91.50
2019-01-17T19:16:30.200Z,91.10
2019-01-17T19:18:58.461Z,91.10
2019-01-17T19:21:26.687Z,90.90
2019-01-17T19:23:54.924Z,91.00
2019-01-17T19:26:23.181Z,90.70
2019-01-17T19:28:51.426Z,90.30
2019-01-17T19:31:19.644Z,90.10
2019-01-17T19:33:47.897Z,89.40
2019-01-17T19:36:16.121Z,88.80
2019-01-17T19:38:44.345Z,88.40
2019-01-17T19:41:12.626Z,87.90
2019-01-17T19:43:40.840Z,88.20
2019-01-17T19:46:09.132Z,87.60
2019-01-17T19:48:37.400Z,87.40
2019-01-17T19:51:05.674Z,87.30
2019-01-17T19:53:33.968Z,88.00
2019-01-17T19:56:02.239Z,88.70
2019-01-17T19:58:30.480Z,89.10
2019-01-17T20:00:58.701Z,90.10
2019-01-17T20:03:26.956Z,90.30
2019-01-17T20:05:55.175Z,90.80
2019-01-17T20:08:23.413Z,90.60
2019-01-17T20:10:51.643Z,90.40
2019-01-17T20:13:19.872Z,90.90
2019-01-17T20:15:48.107Z,91.60
2019-01-17T20:18:16.351Z,91.40
2019-01-17T20:20:44.623Z,91.50
2019-01-17T20:23:12.839Z,91.50
2019-01-17T20:25:41.129Z,91.60
2019-01-17T20:28:09.357Z,91.50
2019-01-17T20:30:37.616Z,91.60
2019-01-17T20:33:05.844Z,91.60
2019-01-17T20:35:34.068Z,91.70
2019-01-17T20:38:02.303Z,91.80
2019-01-17T20:40:30.624Z,91.90
2019-01-17T20:42:58.881Z,91.80
2019-01-17T20:45:27.104Z,91.80
2019-01-17T20:47:55.347Z,91.50
2019-01-17T20:50:26.123Z,91.60
2019-01-17T20:52:54.350Z,91.70
2019-01-17T20:55:22.632Z,91.70
2019-01-17T20:57:50.918Z,91.90
2019-01-17T21:00:25.343Z,92.10
2019-01-17T21:02:53.613Z,92.30
2019-01-17T21:05:22.435Z,92.10
2019-01-17T21:07:50.724Z,92.20
2019-01-17T21:10:18.995Z,92.00
2019-01-17T21:12:47.216Z,92.50
2019-01-17T21:15:15.464Z,92.20
2019-01-17T21:17:43.685Z,92.30
2019-01-17T21:20:13.088Z,92.40
2019-01-17T21:22:41.348Z,92.60
2019-01-17T21:25:15.712Z,92.70
2019-01-17T21:27:43.976Z,92.90
2019-01-17T21:30:21.020Z,92.90
2019-01-17T21:32:49.332Z,93.00
2019-01-17T21:35:17.549Z,93.10
2019-01-17T21:37:45.796Z,93.20
2019-01-17T21:40:16.847Z,93.10
2019-01-17T21:42:45.098Z,93.10
2019-01-17T21:45:15.168Z,93.10
2019-01-17T21:47:43.440Z,93.20
2019-01-17T21:50:14.391Z,93.40
2019-01-17T21:52:42.650Z,93.20
2019-01-17T21:55:10.953Z,93.40
2019-01-17T21:57:39.248Z,93.40
2019-01-17T22:00:13.444Z,93.30
2019-01-17T22:02:41.712Z,93.40
2019-01-17T22:05:10.029Z,93.00
2019-01-17T22:07:38.228Z,93.00
2019-01-17T22:10:09.533Z,92.90
2019-01-17T22:12:37.914Z,93.10
2019-01-17T22:15:09.395Z,92.90
2019-01-17T22:17:37.646Z,92.90
2019-01-17T22:20:09.232Z,92.90
2019-01-17T22:22:37.503Z,92.90
2019-01-17T22:25:11.319Z,93.00
2019-01-17T22:27:39.575Z,93.20
2019-01-17T22:30:11.056Z,93.30
2019-01-17T22:32:39.315Z,93.40
2019-01-17T22:35:07.605Z,93.40
2019-01-17T22:37:35.923Z,93.30
2019-01-17T22:40:06.845Z,93.30
2019-01-17T22:42:35.076Z,93.10
2019-01-17T22:45:04.397Z,93.20
2019-01-17T22:47:32.667Z,93.20
2019-01-17T22:50:00.932Z,93.10
2019-01-17T22:52:29.320Z,93.00
2019-01-17T22:54:57.554Z,92.70
2019-01-17T22:57:25.837Z,92.60
2019-01-17T22:59:54.076Z,92.60
2019-01-17T23:02:22.431Z,92.60
2019-01-17T23:04:50.672Z,92.60
2019-01-17T23:07:18.899Z,92.60
2019-01-17T23:09:47.159Z,92.20
2019-01-17T23:12:15.386Z,92.20
2019-01-17T23:14:44.975Z,92.20
2019-01-17T23:17:13.281Z,92.40
2019-01-17T23:19:41.486Z,92.30
2019-01-17T23:22:09.712Z,92.20
2019-01-17T23:24:37.978Z,92.10
2019-01-17T23:27:06.216Z,92.00
2019-01-17T23:29:34.440Z,91.90
2019-01-17T23:32:02.733Z,91.50
2019-01-17T23:34:30.963Z,91.60
2019-01-17T23:36:59.194Z,91.50
2019-01-17T23:39:27.444Z,91.40
2019-01-17T23:41:55.669Z,91.30
2019-01-17T23:44:23.899Z,91.20
2019-01-17T23:46:52.219Z,91.40
2019-01-17T23:49:20.440Z,91.40
2019-01-17T23:51:48.663Z,91.40
2019-01-17T23:54:16.920Z,91.30
2019-01-17T23:56:45.152Z,91.10
2019-01-17T23:59:13.376Z,90.80
